sensor_id;sensor_type;location;lat;lon;timestamp;P1;durP1;ratioP1;P2;durP2;ratioP2
6842;SDS011;3460;52.028;8.916;2024-02-21T00:01:44;19.73;;;7.93;;
6842;SDS011;3460;52.028;8.916;2024-02-21T00:04:10;19.60;;;7.10;;
6842;SDS011;3460;52.028;8.916;2024-02-21T00:06:37;20.87;;;7.30;;
6842;SDS011;3460;52.028;8.916;2024-02-21T00:09:04;23.57;;;8.97;;
6842;SDS011;3460;52.028;8.916;2024-02-21T00:11:31;19.33;;;7.53;;
6842;SDS011;3460;52.028;8.916;2024-02-21T00:13:57;18.40;;;7.37;;
6842;SDS011;3460;52.028;8.916;2024-02-21T00:16:26;18.60;;;8.03;;
6842;SDS011;3460;52.028;8.916;2024-02-21T00:18:53;20.00;;;7.87;;
6842;SDS011;3460;52.028;8.916;2024-02-21T00:21:19;17.07;;;7.80;;
6842;SDS011;3460;52.028;8.916;2024-02-21T00:23:47;20.20;;;8.37;;
6842;SDS011;3460;52.028;8.916;2024-02-21T00:26:15;17.73;;;7.83;;
6842;SDS011;3460;52.028;8.916;2024-02-21T00:28:42;22.60;;;8.40;;
6842;SDS011;3460;52.028;8.916;2024-02-21T00:31:10;23.80;;;8.60;;
6842;SDS011;3460;52.028;8.916;2024-02-21T00:33:38;22.23;;;8.53;;
6842;SDS011;3460;52.028;8.916;2024-02-21T00:36:05;21.40;;;8.13;;
6842;SDS011;3460;52.028;8.916;2024-02-21T00:38:32;24.63;;;8.57;;
6842;SDS011;3460;52.028;8.916;2024-02-21T00:40:58;24.17;;;9.07;;
6842;SDS011;3460;52.028;8.916;2024-02-21T00:43:25;19.57;;;8.83;;
6842;SDS011;3460;52.028;8.916;2024-02-21T00:45:52;23.30;;;9.17;;
6842;SDS011;3460;52.028;8.916;2024-02-21T00:48:19;18.53;;;8.73;;
6842;SDS011;3460;52.028;8.916;2024-02-21T00:50:47;19.33;;;9.00;;
6842;SDS011;3460;52.028;8.916;2024-02-21T00:53:14;19.27;;;9.07;;
6842;SDS011;3460;52.028;8.916;2024-02-21T00:55:40;27.07;;;10.77;;
6842;SDS011;3460;52.028;8.916;2024-02-21T00:58:08;20.13;;;8.87;;
6842;SDS011;3460;52.028;8.916;2024-02-21T01:00:35;26.33;;;9.60;;
6842;SDS011;3460;52.028;8.916;2024-02-21T01:03:02;24.37;;;10.27;;
6842;SDS011;3460;52.028;8.916;2024-02-21T01:05:29;20.90;;;9.33;;
6842;SDS011;3460;52.028;8.916;2024-02-21T01:07:57;14.93;;;9.63;;
6842;SDS011;3460;52.028;8.916;2024-02-21T01:10:24;19.50;;;10.43;;
6842;SDS011;3460;52.028;8.916;2024-02-21T01:12:51;29.37;;;10.43;;
6842;SDS011;3460;52.028;8.916;2024-02-21T01:15:18;22.63;;;9.47;;
6842;SDS011;3460;52.028;8.916;2024-02-21T01:17:45;21.07;;;10.00;;
6842;SDS011;3460;52.028;8.916;2024-02-21T01:20:12;21.63;;;10.23;;
6842;SDS011;3460;52.028;8.916;2024-02-21T01:22:38;20.63;;;10.30;;
6842;SDS011;3460;52.028;8.916;2024-02-21T01:25:07;22.53;;;10.13;;
6842;SDS011;3460;52.028;8.916;2024-02-21T01:27:34;21.10;;;9.93;;
6842;SDS011;3460;52.028;8.916;2024-02-21T01:30:01;22.03;;;8.90;;
6842;SDS011;3460;52.028;8.916;2024-02-21T01:32:28;23.43;;;10.53;;
6842;SDS011;3460;52.028;8.916;2024-02-21T01:34:55;22.50;;;10.57;;
6842;SDS011;3460;52.028;8.916;2024-02-21T01:37:22;24.47;;;10.20;;
6842;SDS011;3460;52.028;8.916;2024-02-21T01:39:48;21.30;;;9.93;;
6842;SDS011;3460;52.028;8.916;2024-02-21T01:42:17;21.13;;;10.27;;
6842;SDS011;3460;52.028;8.916;2024-02-21T01:44:43;24.03;;;10.23;;
6842;SDS011;3460;52.028;8.916;2024-02-21T01:47:10;21.33;;;10.40;;
6842;SDS011;3460;52.028;8.916;2024-02-21T01:49:38;21.30;;;10.57;;
6842;SDS011;3460;52.028;8.916;2024-02-21T01:52:05;21.60;;;9.13;;
6842;SDS011;3460;52.028;8.916;2024-02-21T01:54:33;20.87;;;9.53;;
6842;SDS011;3460;52.028;8.916;2024-02-21T01:57:00;27.97;;;11.07;;
6842;SDS011;3460;52.028;8.916;2024-02-21T01:59:29;20.53;;;10.87;;
6842;SDS011;3460;52.028;8.916;2024-02-21T02:01:56;23.80;;;10.23;;
6842;SDS011;3460;52.028;8.916;2024-02-21T02:04:23;27.30;;;9.73;;
6842;SDS011;3460;52.028;8.916;2024-02-21T02:06:52;21.10;;;9.60;;
6842;SDS011;3460;52.028;8.916;2024-02-21T02:09:21;20.43;;;9.80;;
6842;SDS011;3460;52.028;8.916;2024-02-21T02:11:47;26.63;;;10.73;;
6842;SDS011;3460;52.028;8.916;2024-02-21T02:14:14;17.60;;;9.50;;
6842;SDS011;3460;52.028;8.916;2024-02-21T02:16:45;22.00;;;10.20;;
6842;SDS011;3460;52.028;8.916;2024-02-21T02:19:12;19.63;;;9.90;;
6842;SDS011;3460;52.028;8.916;2024-02-21T02:21:42;24.23;;;10.03;;
6842;SDS011;3460;52.028;8.916;2024-02-21T02:24:14;18.40;;;8.90;;
6842;SDS011;3460;52.028;8.916;2024-02-21T02:26:42;24.90;;;10.17;;
6842;SDS011;3460;52.028;8.916;2024-02-21T02:29:08;22.37;;;9.97;;
6842;SDS011;3460;52.028;8.916;2024-02-21T02:31:36;22.67;;;9.80;;
6842;SDS011;3460;52.028;8.916;2024-02-21T02:34:03;20.77;;;10.03;;
6842;SDS011;3460;52.028;8.916;2024-02-21T02:36:31;24.07;;;9.37;;
6842;SDS011;3460;52.028;8.916;2024-02-21T02:38:59;17.97;;;9.70;;
6842;SDS011;3460;52.028;8.916;2024-02-21T02:41:27;27.03;;;10.87;;
6842;SDS011;3460;52.028;8.916;2024-02-21T02:43:54;22.37;;;10.87;;
6842;SDS011;3460;52.028;8.916;2024-02-21T02:46:21;22.83;;;10.83;;
6842;SDS011;3460;52.028;8.916;2024-02-21T02:48:47;24.83;;;10.37;;
6842;SDS011;3460;52.028;8.916;2024-02-21T02:51:14;19.63;;;10.00;;
6842;SDS011;3460;52.028;8.916;2024-02-21T02:53:41;22.33;;;10.50;;
6842;SDS011;3460;52.028;8.916;2024-02-21T02:56:13;24.87;;;10.20;;
6842;SDS011;3460;52.028;8.916;2024-02-21T02:58:42;23.20;;;10.50;;
6842;SDS011;3460;52.028;8.916;2024-02-21T03:01:08;19.03;;;9.80;;
6842;SDS011;3460;52.028;8.916;2024-02-21T03:03:35;27.83;;;11.03;;
6842;SDS011;3460;52.028;8.916;2024-02-21T03:06:02;23.10;;;10.40;;
6842;SDS011;3460;52.028;8.916;2024-02-21T03:08:29;20.27;;;9.73;;
6842;SDS011;3460;52.028;8.916;2024-02-21T03:10:57;22.50;;;10.83;;
6842;SDS011;3460;52.028;8.916;2024-02-21T03:13:25;24.83;;;10.80;;
6842;SDS011;3460;52.028;8.916;2024-02-21T03:15:53;18.53;;;9.80;;
6842;SDS011;3460;52.028;8.916;2024-02-21T03:18:19;20.83;;;10.50;;
6842;SDS011;3460;52.028;8.916;2024-02-21T03:20:46;24.07;;;9.80;;
6842;SDS011;3460;52.028;8.916;2024-02-21T03:23:13;19.43;;;9.70;;
6842;SDS011;3460;52.028;8.916;2024-02-21T03:25:40;20.13;;;10.33;;
6842;SDS011;3460;52.028;8.916;2024-02-21T03:28:07;15.93;;;9.30;;
6842;SDS011;3460;52.028;8.916;2024-02-21T03:30:33;18.80;;;9.77;;
6842;SDS011;3460;52.028;8.916;2024-02-21T03:33:02;20.70;;;10.07;;
6842;SDS011;3460;52.028;8.916;2024-02-21T03:35:29;24.63;;;10.33;;
6842;SDS011;3460;52.028;8.916;2024-02-21T03:37:56;18.07;;;9.50;;
6842;SDS011;3460;52.028;8.916;2024-02-21T03:40:22;18.90;;;9.97;;
6842;SDS011;3460;52.028;8.916;2024-02-21T03:42:49;17.73;;;9.07;;
6842;SDS011;3460;52.028;8.916;2024-02-21T03:45:15;22.63;;;9.77;;
6842;SDS011;3460;52.028;8.916;2024-02-21T03:47:42;19.77;;;9.53;;
6842;SDS011;3460;52.028;8.916;2024-02-21T03:50:10;20.93;;;9.53;;
6842;SDS011;3460;52.028;8.916;2024-02-21T03:52:37;17.57;;;9.70;;
6842;SDS011;3460;52.028;8.916;2024-02-21T03:55:04;17.97;;;8.93;;
6842;SDS011;3460;52.028;8.916;2024-02-21T03:57:32;18.97;;;8.80;;
6842;SDS011;3460;52.028;8.916;2024-02-21T03:59:59;20.67;;;9.77;;
6842;SDS011;3460;52.028;8.916;2024-02-21T04:02:26;16.93;;;8.40;;
6842;SDS011;3460;52.028;8.916;2024-02-21T04:04:53;18.20;;;9.20;;
6842;SDS011;3460;52.028;8.916;2024-02-21T04:07:21;19.57;;;9.10;;
6842;SDS011;3460;52.028;8.916;2024-02-21T04:09:48;18.67;;;8.27;;
6842;SDS011;3460;52.028;8.916;2024-02-21T04:12:14;19.03;;;8.47;;
6842;SDS011;3460;52.028;8.916;2024-02-21T04:14:41;19.57;;;8.53;;
6842;SDS011;3460;52.028;8.916;2024-02-21T04:17:08;16.13;;;8.30;;
6842;SDS011;3460;52.028;8.916;2024-02-21T04:19:35;18.43;;;9.20;;
6842;SDS011;3460;52.028;8.916;2024-02-21T04:22:01;18.83;;;8.63;;
6842;SDS011;3460;52.028;8.916;2024-02-21T04:24:30;15.27;;;7.93;;
6842;SDS011;3460;52.028;8.916;2024-02-21T04:26:56;17.67;;;8.70;;
6842;SDS011;3460;52.028;8.916;2024-02-21T04:29:23;17.13;;;8.60;;
6842;SDS011;3460;52.028;8.916;2024-02-21T04:31:50;19.07;;;8.27;;
6842;SDS011;3460;52.028;8.916;2024-02-21T04:34:17;19.03;;;8.33;;
6842;SDS011;3460;52.028;8.916;2024-02-21T04:36:43;15.37;;;8.40;;
6842;SDS011;3460;52.028;8.916;2024-02-21T04:39:11;15.87;;;8.83;;
6842;SDS011;3460;52.028;8.916;2024-02-21T04:41:39;17.13;;;8.87;;
6842;SDS011;3460;52.028;8.916;2024-02-21T04:44:06;14.23;;;8.87;;
6842;SDS011;3460;52.028;8.916;2024-02-21T04:46:33;40.83;;;22.07;;
6842;SDS011;3460;52.028;8.916;2024-02-21T04:49:00;14.97;;;8.13;;
6842;SDS011;3460;52.028;8.916;2024-02-21T04:51:27;16.17;;;8.47;;
6842;SDS011;3460;52.028;8.916;2024-02-21T04:53:54;15.47;;;7.97;;
6842;SDS011;3460;52.028;8.916;2024-02-21T04:56:21;15.87;;;8.57;;
6842;SDS011;3460;52.028;8.916;2024-02-21T04:58:49;16.57;;;8.53;;
6842;SDS011;3460;52.028;8.916;2024-02-21T05:01:15;20.03;;;8.83;;
6842;SDS011;3460;52.028;8.916;2024-02-21T05:03:42;21.30;;;8.70;;
6842;SDS011;3460;52.028;8.916;2024-02-21T05:06:09;15.10;;;8.30;;
6842;SDS011;3460;52.028;8.916;2024-02-21T05:08:36;21.17;;;8.77;;
6842;SDS011;3460;52.028;8.916;2024-02-21T05:11:03;18.17;;;9.13;;
6842;SDS011;3460;52.028;8.916;2024-02-21T05:13:30;20.63;;;10.50;;
6842;SDS011;3460;52.028;8.916;2024-02-21T05:15:58;19.03;;;9.60;;
6842;SDS011;3460;52.028;8.916;2024-02-21T05:18:26;22.30;;;9.63;;
6842;SDS011;3460;52.028;8.916;2024-02-21T05:20:53;20.77;;;9.80;;
6842;SDS011;3460;52.028;8.916;2024-02-21T05:23:20;15.00;;;9.20;;
6842;SDS011;3460;52.028;8.916;2024-02-21T05:25:46;21.87;;;9.40;;
6842;SDS011;3460;52.028;8.916;2024-02-21T05:28:13;21.17;;;9.87;;
6842;SDS011;3460;52.028;8.916;2024-02-21T05:30:40;23.57;;;9.13;;
6842;SDS011;3460;52.028;8.916;2024-02-21T05:33:09;21.70;;;12.13;;
6842;SDS011;3460;52.028;8.916;2024-02-21T05:35:36;16.70;;;8.87;;
6842;SDS011;3460;52.028;8.916;2024-02-21T05:38:03;17.33;;;8.70;;
6842;SDS011;3460;52.028;8.916;2024-02-21T05:40:36;20.53;;;10.53;;
6842;SDS011;3460;52.028;8.916;2024-02-21T05:43:03;18.27;;;9.00;;
6842;SDS011;3460;52.028;8.916;2024-02-21T05:45:29;14.23;;;8.80;;
6842;SDS011;3460;52.028;8.916;2024-02-21T05:47:56;18.57;;;9.20;;
6842;SDS011;3460;52.028;8.916;2024-02-21T05:50:24;16.80;;;9.93;;
6842;SDS011;3460;52.028;8.916;2024-02-21T05:52:51;27.90;;;16.10;;
6842;SDS011;3460;52.028;8.916;2024-02-21T05:55:18;20.07;;;9.37;;
6842;SDS011;3460;52.028;8.916;2024-02-21T05:57:45;21.40;;;9.80;;
6842;SDS011;3460;52.028;8.916;2024-02-21T06:00:12;19.43;;;9.50;;
6842;SDS011;3460;52.028;8.916;2024-02-21T06:02:40;15.67;;;8.93;;
6842;SDS011;3460;52.028;8.916;2024-02-21T06:05:07;16.10;;;9.20;;
6842;SDS011;3460;52.028;8.916;2024-02-21T06:07:36;17.70;;;8.33;;
6842;SDS011;3460;52.028;8.916;2024-02-21T06:10:02;18.10;;;8.97;;
6842;SDS011;3460;52.028;8.916;2024-02-21T06:12:30;18.00;;;8.03;;
6842;SDS011;3460;52.028;8.916;2024-02-21T06:14:57;16.90;;;9.30;;
6842;SDS011;3460;52.028;8.916;2024-02-21T06:17:23;24.67;;;9.77;;
6842;SDS011;3460;52.028;8.916;2024-02-21T06:19:50;23.77;;;11.17;;
6842;SDS011;3460;52.028;8.916;2024-02-21T06:22:17;18.97;;;8.37;;
6842;SDS011;3460;52.028;8.916;2024-02-21T06:24:45;32.37;;;16.40;;
6842;SDS011;3460;52.028;8.916;2024-02-21T06:27:12;17.30;;;9.70;;
6842;SDS011;3460;52.028;8.916;2024-02-21T06:29:40;21.90;;;8.50;;
6842;SDS011;3460;52.028;8.916;2024-02-21T06:32:06;17.70;;;8.80;;
6842;SDS011;3460;52.028;8.916;2024-02-21T06:34:33;19.60;;;9.10;;
6842;SDS011;3460;52.028;8.916;2024-02-21T06:37:00;18.07;;;10.33;;
6842;SDS011;3460;52.028;8.916;2024-02-21T06:39:27;31.40;;;14.37;;
6842;SDS011;3460;52.028;8.916;2024-02-21T06:41:55;18.33;;;8.77;;
6842;SDS011;3460;52.028;8.916;2024-02-21T06:44:22;19.67;;;10.43;;
6842;SDS011;3460;52.028;8.916;2024-02-21T06:46:49;19.67;;;9.03;;
6842;SDS011;3460;52.028;8.916;2024-02-21T06:49:16;19.67;;;9.87;;
6842;SDS011;3460;52.028;8.916;2024-02-21T06:51:42;15.43;;;9.20;;
6842;SDS011;3460;52.028;8.916;2024-02-21T06:54:09;20.43;;;9.80;;
6842;SDS011;3460;52.028;8.916;2024-02-21T06:56:37;17.87;;;8.87;;
6842;SDS011;3460;52.028;8.916;2024-02-21T06:59:05;19.20;;;9.40;;
6842;SDS011;3460;52.028;8.916;2024-02-21T07:01:32;16.67;;;8.50;;
6842;SDS011;3460;52.028;8.916;2024-02-21T07:03:59;17.63;;;8.70;;
6842;SDS011;3460;52.028;8.916;2024-02-21T07:06:25;23.97;;;9.73;;
6842;SDS011;3460;52.028;8.916;2024-02-21T07:09:02;14.07;;;7.63;;
6842;SDS011;3460;52.028;8.916;2024-02-21T07:11:29;48.80;;;25.30;;
6842;SDS011;3460;52.028;8.916;2024-02-21T07:13:56;17.77;;;7.13;;
6842;SDS011;3460;52.028;8.916;2024-02-21T07:16:23;13.60;;;6.70;;
6842;SDS011;3460;52.028;8.916;2024-02-21T07:18:49;15.83;;;6.20;;
6842;SDS011;3460;52.028;8.916;2024-02-21T07:21:16;16.77;;;8.10;;
6842;SDS011;3460;52.028;8.916;2024-02-21T07:23:43;14.87;;;8.33;;
6842;SDS011;3460;52.028;8.916;2024-02-21T07:26:11;14.90;;;7.57;;
6842;SDS011;3460;52.028;8.916;2024-02-21T07:28:38;15.37;;;7.20;;
6842;SDS011;3460;52.028;8.916;2024-02-21T07:31:04;14.70;;;9.20;;
6842;SDS011;3460;52.028;8.916;2024-02-21T07:33:31;16.47;;;6.37;;
6842;SDS011;3460;52.028;8.916;2024-02-21T07:36:00;13.07;;;6.40;;
6842;SDS011;3460;52.028;8.916;2024-02-21T07:38:28;13.33;;;6.53;;
6842;SDS011;3460;52.028;8.916;2024-02-21T07:40:55;13.10;;;6.17;;
6842;SDS011;3460;52.028;8.916;2024-02-21T07:43:23;12.67;;;5.73;;
6842;SDS011;3460;52.028;8.916;2024-02-21T07:45:51;13.00;;;5.13;;
6842;SDS011;3460;52.028;8.916;2024-02-21T07:48:19;13.43;;;6.13;;
6842;SDS011;3460;52.028;8.916;2024-02-21T07:50:49;14.03;;;6.20;;
6842;SDS011;3460;52.028;8.916;2024-02-21T07:53:16;17.27;;;6.43;;
6842;SDS011;3460;52.028;8.916;2024-02-21T07:55:43;12.63;;;7.43;;
6842;SDS011;3460;52.028;8.916;2024-02-21T07:58:09;9.97;;;5.83;;
6842;SDS011;3460;52.028;8.916;2024-02-21T08:00:38;15.90;;;6.73;;
6842;SDS011;3460;52.028;8.916;2024-02-21T08:03:04;12.10;;;5.90;;
6842;SDS011;3460;52.028;8.916;2024-02-21T08:05:33;15.80;;;8.13;;
6842;SDS011;3460;52.028;8.916;2024-02-21T08:08:00;12.07;;;6.17;;
6842;SDS011;3460;52.028;8.916;2024-02-21T08:10:27;12.93;;;5.70;;
6842;SDS011;3460;52.028;8.916;2024-02-21T08:12:54;11.27;;;5.90;;
6842;SDS011;3460;52.028;8.916;2024-02-21T08:15:21;10.03;;;5.43;;
6842;SDS011;3460;52.028;8.916;2024-02-21T08:17:54;12.23;;;5.33;;
6842;SDS011;3460;52.028;8.916;2024-02-21T08:20:24;10.90;;;5.27;;
6842;SDS011;3460;52.028;8.916;2024-02-21T08:22:51;11.53;;;5.30;;
6842;SDS011;3460;52.028;8.916;2024-02-21T08:25:18;10.47;;;5.20;;
6842;SDS011;3460;52.028;8.916;2024-02-21T08:27:45;10.53;;;5.17;;
6842;SDS011;3460;52.028;8.916;2024-02-21T08:30:12;10.47;;;5.37;;
6842;SDS011;3460;52.028;8.916;2024-02-21T08:32:39;10.73;;;5.30;;
6842;SDS011;3460;52.028;8.916;2024-02-21T08:35:08;10.17;;;4.93;;
6842;SDS011;3460;52.028;8.916;2024-02-21T08:37:34;13.33;;;4.77;;
6842;SDS011;3460;52.028;8.916;2024-02-21T08:40:01;13.37;;;5.47;;
6842;SDS011;3460;52.028;8.916;2024-02-21T08:42:33;9.47;;;4.87;;
6842;SDS011;3460;52.028;8.916;2024-02-21T08:45:00;9.63;;;4.87;;
6842;SDS011;3460;52.028;8.916;2024-02-21T08:47:27;8.63;;;4.50;;
6842;SDS011;3460;52.028;8.916;2024-02-21T08:49:53;8.97;;;4.43;;
6842;SDS011;3460;52.028;8.916;2024-02-21T08:52:21;11.43;;;4.60;;
6842;SDS011;3460;52.028;8.916;2024-02-21T08:54:48;12.13;;;5.23;;
6842;SDS011;3460;52.028;8.916;2024-02-21T08:57:18;15.20;;;5.07;;
6842;SDS011;3460;52.028;8.916;2024-02-21T08:59:45;8.77;;;4.33;;
6842;SDS011;3460;52.028;8.916;2024-02-21T09:02:12;13.23;;;5.17;;
6842;SDS011;3460;52.028;8.916;2024-02-21T09:04:41;9.17;;;4.60;;
6842;SDS011;3460;52.028;8.916;2024-02-21T09:07:08;11.40;;;4.87;;
6842;SDS011;3460;52.028;8.916;2024-02-21T09:09:37;10.43;;;4.20;;
6842;SDS011;3460;52.028;8.916;2024-02-21T09:12:05;11.97;;;4.97;;
6842;SDS011;3460;52.028;8.916;2024-02-21T09:14:33;10.67;;;4.70;;
6842;SDS011;3460;52.028;8.916;2024-02-21T09:17:00;10.17;;;5.10;;
6842;SDS011;3460;52.028;8.916;2024-02-21T09:19:26;8.53;;;4.43;;
6842;SDS011;3460;52.028;8.916;2024-02-21T09:21:53;9.50;;;4.70;;
6842;SDS011;3460;52.028;8.916;2024-02-21T09:24:20;10.77;;;4.43;;
6842;SDS011;3460;52.028;8.916;2024-02-21T09:26:48;9.17;;;4.50;;
6842;SDS011;3460;52.028;8.916;2024-02-21T09:29:15;8.90;;;4.03;;
6842;SDS011;3460;52.028;8.916;2024-02-21T09:31:41;10.53;;;4.07;;
6842;SDS011;3460;52.028;8.916;2024-02-21T09:34:08;6.63;;;4.30;;
6842;SDS011;3460;52.028;8.916;2024-02-21T09:36:36;9.47;;;4.07;;
6842;SDS011;3460;52.028;8.916;2024-02-21T09:39:03;9.97;;;3.87;;
6842;SDS011;3460;52.028;8.916;2024-02-21T09:41:30;8.77;;;4.03;;
6842;SDS011;3460;52.028;8.916;2024-02-21T09:43:58;8.20;;;3.77;;
6842;SDS011;3460;52.028;8.916;2024-02-21T09:46:29;6.37;;;3.27;;
6842;SDS011;3460;52.028;8.916;2024-02-21T09:49:09;9.67;;;3.47;;
6842;SDS011;3460;52.028;8.916;2024-02-21T09:51:47;8.53;;;3.80;;
6842;SDS011;3460;52.028;8.916;2024-02-21T09:54:17;6.93;;;3.30;;
6842;SDS011;3460;52.028;8.916;2024-02-21T09:56:45;11.90;;;4.00;;
6842;SDS011;3460;52.028;8.916;2024-02-21T09:59:14;7.00;;;4.07;;
6842;SDS011;3460;52.028;8.916;2024-02-21T10:01:41;9.27;;;4.23;;
6842;SDS011;3460;52.028;8.916;2024-02-21T10:04:09;9.77;;;3.63;;
6842;SDS011;3460;52.028;8.916;2024-02-21T10:06:36;9.93;;;3.67;;
6842;SDS011;3460;52.028;8.916;2024-02-21T10:09:04;10.90;;;3.90;;
6842;SDS011;3460;52.028;8.916;2024-02-21T10:11:32;7.00;;;3.37;;
6842;SDS011;3460;52.028;8.916;2024-02-21T10:14:04;6.43;;;3.53;;
6842;SDS011;3460;52.028;8.916;2024-02-21T10:16:32;7.90;;;3.00;;
6842;SDS011;3460;52.028;8.916;2024-02-21T10:18:59;10.50;;;3.30;;
6842;SDS011;3460;52.028;8.916;2024-02-21T10:21:28;6.97;;;2.97;;
6842;SDS011;3460;52.028;8.916;2024-02-21T10:23:55;6.17;;;2.80;;
6842;SDS011;3460;52.028;8.916;2024-02-21T10:26:22;8.77;;;2.87;;
6842;SDS011;3460;52.028;8.916;2024-02-21T10:28:48;6.03;;;3.13;;
6842;SDS011;3460;52.028;8.916;2024-02-21T10:31:23;5.23;;;2.67;;
6842;SDS011;3460;52.028;8.916;2024-02-21T10:33:55;6.50;;;3.27;;
6842;SDS011;3460;52.028;8.916;2024-02-21T10:36:22;5.60;;;2.73;;
6842;SDS011;3460;52.028;8.916;2024-02-21T10:38:49;5.87;;;3.30;;
6842;SDS011;3460;52.028;8.916;2024-02-21T10:41:16;5.10;;;3.07;;
6842;SDS011;3460;52.028;8.916;2024-02-21T10:43:46;9.33;;;2.83;;
6842;SDS011;3460;52.028;8.916;2024-02-21T10:46:17;6.00;;;3.23;;
6842;SDS011;3460;52.028;8.916;2024-02-21T10:48:46;5.37;;;3.17;;
6842;SDS011;3460;52.028;8.916;2024-02-21T10:51:18;8.03;;;4.10;;
6842;SDS011;3460;52.028;8.916;2024-02-21T10:53:50;5.43;;;3.70;;
6842;SDS011;3460;52.028;8.916;2024-02-21T10:56:26;4.83;;;3.30;;
6842;SDS011;3460;52.028;8.916;2024-02-21T10:58:55;8.53;;;3.93;;
6842;SDS011;3460;52.028;8.916;2024-02-21T11:01:23;9.07;;;4.23;;
6842;SDS011;3460;52.028;8.916;2024-02-21T11:03:52;7.43;;;3.80;;
6842;SDS011;3460;52.028;8.916;2024-02-21T11:06:22;8.47;;;4.10;;
6842;SDS011;3460;52.028;8.916;2024-02-21T11:09:03;8.17;;;4.10;;
6842;SDS011;3460;52.028;8.916;2024-02-21T11:11:32;11.13;;;4.30;;
6842;SDS011;3460;52.028;8.916;2024-02-21T11:14:03;8.53;;;5.10;;
6842;SDS011;3460;52.028;8.916;2024-02-21T11:16:34;9.63;;;5.30;;
6842;SDS011;3460;52.028;8.916;2024-02-21T11:19:06;9.90;;;5.20;;
6842;SDS011;3460;52.028;8.916;2024-02-21T11:21:35;10.23;;;6.10;;
6842;SDS011;3460;52.028;8.916;2024-02-21T11:24:02;9.77;;;6.23;;
6842;SDS011;3460;52.028;8.916;2024-02-21T11:26:29;14.60;;;6.27;;
6842;SDS011;3460;52.028;8.916;2024-02-21T11:28:57;14.90;;;7.30;;
6842;SDS011;3460;52.028;8.916;2024-02-21T11:31:25;10.40;;;5.60;;
6842;SDS011;3460;52.028;8.916;2024-02-21T11:33:52;9.03;;;5.40;;
6842;SDS011;3460;52.028;8.916;2024-02-21T11:36:23;9.63;;;5.63;;
6842;SDS011;3460;52.028;8.916;2024-02-21T11:38:52;11.47;;;6.00;;
6842;SDS011;3460;52.028;8.916;2024-02-21T11:41:19;12.10;;;5.57;;
6842;SDS011;3460;52.028;8.916;2024-02-21T11:43:46;8.90;;;5.03;;
6842;SDS011;3460;52.028;8.916;2024-02-21T11:46:13;8.90;;;5.23;;
6842;SDS011;3460;52.028;8.916;2024-02-21T11:48:40;9.63;;;5.10;;
6842;SDS011;3460;52.028;8.916;2024-02-21T11:51:09;8.80;;;5.10;;
6842;SDS011;3460;52.028;8.916;2024-02-21T11:53:36;8.43;;;4.80;;
6842;SDS011;3460;52.028;8.916;2024-02-21T11:56:05;8.83;;;4.70;;
6842;SDS011;3460;52.028;8.916;2024-02-21T11:58:32;6.93;;;4.30;;
6842;SDS011;3460;52.028;8.916;2024-02-21T12:00:59;7.27;;;4.77;;
6842;SDS011;3460;52.028;8.916;2024-02-21T12:03:27;9.53;;;4.33;;
6842;SDS011;3460;52.028;8.916;2024-02-21T12:05:54;7.37;;;4.20;;
6842;SDS011;3460;52.028;8.916;2024-02-21T12:08:23;7.47;;;4.70;;
6842;SDS011;3460;52.028;8.916;2024-02-21T12:10:50;6.40;;;3.67;;
6842;SDS011;3460;52.028;8.916;2024-02-21T12:13:18;6.70;;;3.30;;
6842;SDS011;3460;52.028;8.916;2024-02-21T12:15:49;8.27;;;3.77;;
6842;SDS011;3460;52.028;8.916;2024-02-21T12:18:16;7.87;;;3.60;;
6842;SDS011;3460;52.028;8.916;2024-02-21T12:20:42;9.10;;;3.17;;
6842;SDS011;3460;52.028;8.916;2024-02-21T12:23:11;8.83;;;2.87;;
6842;SDS011;3460;52.028;8.916;2024-02-21T12:25:38;9.13;;;3.20;;
6842;SDS011;3460;52.028;8.916;2024-02-21T12:28:05;6.17;;;2.87;;
6842;SDS011;3460;52.028;8.916;2024-02-21T12:30:34;8.20;;;2.77;;
6842;SDS011;3460;52.028;8.916;2024-02-21T12:33:04;7.90;;;2.73;;
6842;SDS011;3460;52.028;8.916;2024-02-21T12:35:31;6.30;;;2.40;;
6842;SDS011;3460;52.028;8.916;2024-02-21T12:37:58;6.47;;;2.40;;
6842;SDS011;3460;52.028;8.916;2024-02-21T12:40:26;5.47;;;2.23;;
6842;SDS011;3460;52.028;8.916;2024-02-21T12:42:57;4.90;;;2.03;;
6842;SDS011;3460;52.028;8.916;2024-02-21T12:45:24;5.83;;;2.57;;
6842;SDS011;3460;52.028;8.916;2024-02-21T12:47:52;5.13;;;2.13;;
6842;SDS011;3460;52.028;8.916;2024-02-21T12:50:19;6.10;;;2.30;;
6842;SDS011;3460;52.028;8.916;2024-02-21T12:52:47;3.90;;;2.30;;
6842;SDS011;3460;52.028;8.916;2024-02-21T12:55:14;8.67;;;2.47;;
6842;SDS011;3460;52.028;8.916;2024-02-21T12:57:42;6.67;;;2.33;;
6842;SDS011;3460;52.028;8.916;2024-02-21T13:00:09;8.57;;;2.47;;
6842;SDS011;3460;52.028;8.916;2024-02-21T13:02:36;6.67;;;3.07;;
6842;SDS011;3460;52.028;8.916;2024-02-21T13:05:05;6.93;;;2.63;;
6842;SDS011;3460;52.028;8.916;2024-02-21T13:07:32;7.50;;;2.60;;
6842;SDS011;3460;52.028;8.916;2024-02-21T13:09:59;8.93;;;2.67;;
6842;SDS011;3460;52.028;8.916;2024-02-21T13:12:26;8.73;;;2.70;;
6842;SDS011;3460;52.028;8.916;2024-02-21T13:14:55;6.23;;;2.47;;
6842;SDS011;3460;52.028;8.916;2024-02-21T13:17:21;8.43;;;2.83;;
6842;SDS011;3460;52.028;8.916;2024-02-21T13:19:48;6.37;;;3.10;;
6842;SDS011;3460;52.028;8.916;2024-02-21T13:22:16;6.20;;;2.90;;
6842;SDS011;3460;52.028;8.916;2024-02-21T13:24:45;9.87;;;3.47;;
6842;SDS011;3460;52.028;8.916;2024-02-21T13:27:12;7.07;;;3.20;;
6842;SDS011;3460;52.028;8.916;2024-02-21T13:29:38;6.73;;;3.10;;
6842;SDS011;3460;52.028;8.916;2024-02-21T13:32:05;7.13;;;3.13;;
6842;SDS011;3460;52.028;8.916;2024-02-21T13:34:33;7.90;;;3.17;;
6842;SDS011;3460;52.028;8.916;2024-02-21T13:37:00;6.10;;;2.70;;
6842;SDS011;3460;52.028;8.916;2024-02-21T13:39:28;7.13;;;2.90;;
6842;SDS011;3460;52.028;8.916;2024-02-21T13:41:55;7.93;;;2.67;;
6842;SDS011;3460;52.028;8.916;2024-02-21T13:44:23;9.67;;;2.43;;
6842;SDS011;3460;52.028;8.916;2024-02-21T13:46:50;8.53;;;3.07;;
6842;SDS011;3460;52.028;8.916;2024-02-21T13:49:17;6.70;;;3.10;;
6842;SDS011;3460;52.028;8.916;2024-02-21T13:51:43;3.57;;;2.17;;
6842;SDS011;3460;52.028;8.916;2024-02-21T13:54:10;5.90;;;2.40;;
6842;SDS011;3460;52.028;8.916;2024-02-21T13:56:41;7.80;;;2.67;;
6842;SDS011;3460;52.028;8.916;2024-02-21T13:59:08;7.50;;;3.33;;
6842;SDS011;3460;52.028;8.916;2024-02-21T14:01:35;10.73;;;3.67;;
6842;SDS011;3460;52.028;8.916;2024-02-21T14:04:02;6.10;;;3.03;;
6842;SDS011;3460;52.028;8.916;2024-02-21T14:06:29;6.17;;;2.80;;
6842;SDS011;3460;52.028;8.916;2024-02-21T14:08:56;6.60;;;3.03;;
6842;SDS011;3460;52.028;8.916;2024-02-21T14:11:23;6.57;;;2.47;;
6842;SDS011;3460;52.028;8.916;2024-02-21T14:13:51;8.17;;;2.70;;
6842;SDS011;3460;52.028;8.916;2024-02-21T14:16:22;8.87;;;3.00;;
6842;SDS011;3460;52.028;8.916;2024-02-21T14:18:49;5.40;;;2.40;;
6842;SDS011;3460;52.028;8.916;2024-02-21T14:21:15;6.50;;;2.70;;
6842;SDS011;3460;52.028;8.916;2024-02-21T14:23:42;6.93;;;2.10;;
6842;SDS011;3460;52.028;8.916;2024-02-21T14:26:09;6.10;;;2.43;;
6842;SDS011;3460;52.028;8.916;2024-02-21T14:28:37;5.27;;;2.13;;
6842;SDS011;3460;52.028;8.916;2024-02-21T14:31:05;6.53;;;2.27;;
6842;SDS011;3460;52.028;8.916;2024-02-21T14:33:34;4.33;;;1.80;;
6842;SDS011;3460;52.028;8.916;2024-02-21T14:36:01;7.67;;;2.20;;
6842;SDS011;3460;52.028;8.916;2024-02-21T14:38:28;4.33;;;2.27;;
6842;SDS011;3460;52.028;8.916;2024-02-21T14:40:55;4.93;;;2.10;;
6842;SDS011;3460;52.028;8.916;2024-02-21T14:43:22;4.83;;;1.80;;
6842;SDS011;3460;52.028;8.916;2024-02-21T14:45:49;6.33;;;2.57;;
6842;SDS011;3460;52.028;8.916;2024-02-21T14:48:17;7.07;;;2.77;;
6842;SDS011;3460;52.028;8.916;2024-02-21T14:50:45;6.10;;;2.20;;
6842;SDS011;3460;52.028;8.916;2024-02-21T14:53:12;8.07;;;2.80;;
6842;SDS011;3460;52.028;8.916;2024-02-21T14:55:39;6.60;;;2.30;;
6842;SDS011;3460;52.028;8.916;2024-02-21T14:58:07;7.40;;;2.13;;
6842;SDS011;3460;52.028;8.916;2024-02-21T15:00:33;6.10;;;3.10;;
6842;SDS011;3460;52.028;8.916;2024-02-21T15:03:00;7.93;;;2.30;;
6842;SDS011;3460;52.028;8.916;2024-02-21T15:05:29;5.67;;;2.33;;
6842;SDS011;3460;52.028;8.916;2024-02-21T15:07:56;4.90;;;2.13;;